sensor_id;sensor_type;location;lat;lon;timestamp;P1;durP1;ratioP1;P2;durP2;ratioP2
19969;SDS011;10146;47.754;9.566;2023-02-28T00:00:21;8.15;;;7.35;;
19969;SDS011;10146;47.754;9.566;2023-02-28T00:02:47;7.72;;;7.03;;
19969;SDS011;10146;47.754;9.566;2023-02-28T00:05:14;8.25;;;7.45;;
19969;SDS011;10146;47.754;9.566;2023-02-28T00:07:42;8.35;;;7.28;;
19969;SDS011;10146;47.754;9.566;2023-02-28T00:10:09;8.43;;;7.63;;
19969;SDS011;10146;47.754;9.566;2023-02-28T00:12:36;8.73;;;7.55;;
19969;SDS011;10146;47.754;9.566;2023-02-28T00:15:09;7.97;;;7.18;;
19969;SDS011;10146;47.754;9.566;2023-02-28T00:17:36;7.93;;;7.13;;
19969;SDS011;10146;47.754;9.566;2023-02-28T00:20:02;7.00;;;6.40;;
19969;SDS011;10146;47.754;9.566;2023-02-28T00:22:37;7.85;;;7.05;;
19969;SDS011;10146;47.754;9.566;2023-02-28T00:25:05;8.38;;;7.57;;
19969;SDS011;10146;47.754;9.566;2023-02-28T00:27:32;8.07;;;7.25;;
19969;SDS011;10146;47.754;9.566;2023-02-28T00:29:59;7.63;;;6.88;;
19969;SDS011;10146;47.754;9.566;2023-02-28T00:32:24;7.95;;;7.15;;
19969;SDS011;10146;47.754;9.566;2023-02-28T00:34:50;7.85;;;7.05;;
19969;SDS011;10146;47.754;9.566;2023-02-28T00:37:16;7.95;;;7.15;;
19969;SDS011;10146;47.754;9.566;2023-02-28T00:39:41;7.93;;;7.13;;
19969;SDS011;10146;47.754;9.566;2023-02-28T00:42:07;7.63;;;6.93;;
19969;SDS011;10146;47.754;9.566;2023-02-28T00:44:33;8.10;;;7.30;;
19969;SDS011;10146;47.754;9.566;2023-02-28T00:46:59;7.75;;;7.05;;
19969;SDS011;10146;47.754;9.566;2023-02-28T00:49:25;7.95;;;7.03;;
19969;SDS011;10146;47.754;9.566;2023-02-28T00:51:53;7.55;;;6.82;;
19969;SDS011;10146;47.754;9.566;2023-02-28T00:54:19;7.32;;;6.68;;
19969;SDS011;10146;47.754;9.566;2023-02-28T00:56:46;7.72;;;6.93;;
19969;SDS011;10146;47.754;9.566;2023-02-28T00:59:12;7.88;;;7.18;;
19969;SDS011;10146;47.754;9.566;2023-02-28T01:01:38;8.23;;;7.43;;
19969;SDS011;10146;47.754;9.566;2023-02-28T01:04:04;7.85;;;7.05;;
19969;SDS011;10146;47.754;9.566;2023-02-28T01:06:30;9.27;;;6.38;;
19969;SDS011;10146;47.754;9.566;2023-02-28T01:08:56;7.50;;;6.78;;
19969;SDS011;10146;47.754;9.566;2023-02-28T01:11:22;7.25;;;6.55;;
19969;SDS011;10146;47.754;9.566;2023-02-28T01:13:48;9.23;;;7.35;;
19969;SDS011;10146;47.754;9.566;2023-02-28T01:16:13;7.40;;;6.65;;
19969;SDS011;10146;47.754;9.566;2023-02-28T01:18:39;7.53;;;6.80;;
19969;SDS011;10146;47.754;9.566;2023-02-28T01:21:06;7.13;;;6.47;;
19969;SDS011;10146;47.754;9.566;2023-02-28T01:23:34;8.75;;;6.65;;
19969;SDS011;10146;47.754;9.566;2023-02-28T01:28:31;7.55;;;6.85;;
19969;SDS011;10146;47.754;9.566;2023-02-28T01:30:57;7.32;;;6.63;;
19969;SDS011;10146;47.754;9.566;2023-02-28T01:33:23;7.80;;;6.82;;
19969;SDS011;10146;47.754;9.566;2023-02-28T01:35:48;7.32;;;6.60;;
19969;SDS011;10146;47.754;9.566;2023-02-28T01:38:14;7.40;;;6.70;;
19969;SDS011;10146;47.754;9.566;2023-02-28T01:40:40;7.40;;;6.53;;
19969;SDS011;10146;47.754;9.566;2023-02-28T01:46:08;6.55;;;5.95;;
19969;SDS011;10146;47.754;9.566;2023-02-28T01:48:36;7.43;;;6.72;;
19969;SDS011;10146;47.754;9.566;2023-02-28T01:51:07;6.55;;;6.03;;
19969;SDS011;10146;47.754;9.566;2023-02-28T01:53:42;7.30;;;6.60;;
19969;SDS011;10146;47.754;9.566;2023-02-28T01:56:12;7.72;;;6.97;;
19969;SDS011;10146;47.754;9.566;2023-02-28T01:58:45;7.30;;;6.60;;
19969;SDS011;10146;47.754;9.566;2023-02-28T02:01:12;7.50;;;6.50;;
19969;SDS011;10146;47.754;9.566;2023-02-28T02:03:46;7.75;;;6.57;;
19969;SDS011;10146;47.754;9.566;2023-02-28T02:06:23;8.45;;;7.63;;
19969;SDS011;10146;47.754;9.566;2023-02-28T02:08:51;7.30;;;6.57;;
19969;SDS011;10146;47.754;9.566;2023-02-28T02:11:17;6.95;;;6.35;;
19969;SDS011;10146;47.754;9.566;2023-02-28T02:16:44;6.72;;;6.13;;
19969;SDS011;10146;47.754;9.566;2023-02-28T02:19:25;7.30;;;6.13;;
19969;SDS011;10146;47.754;9.566;2023-02-28T02:25:11;6.85;;;6.15;;
19969;SDS011;10146;47.754;9.566;2023-02-28T02:30:58;6.63;;;6.03;;
19969;SDS011;10146;47.754;9.566;2023-02-28T02:36:48;6.63;;;6.03;;
19969;SDS011;10146;47.754;9.566;2023-02-28T02:42:11;6.95;;;6.28;;
19969;SDS011;10146;47.754;9.566;2023-02-28T02:44:48;6.45;;;5.85;;
19969;SDS011;10146;47.754;9.566;2023-02-28T02:47:22;6.93;;;6.32;;
19969;SDS011;10146;47.754;9.566;2023-02-28T02:49:53;6.57;;;6.00;;
19969;SDS011;10146;47.754;9.566;2023-02-28T02:52:23;7.25;;;6.55;;
19969;SDS011;10146;47.754;9.566;2023-02-28T02:54:54;7.60;;;6.88;;
19969;SDS011;10146;47.754;9.566;2023-02-28T02:57:27;7.13;;;6.50;;
19969;SDS011;10146;47.754;9.566;2023-02-28T02:59:59;6.88;;;6.22;;
19969;SDS011;10146;47.754;9.566;2023-02-28T03:02:28;7.20;;;6.60;;
19969;SDS011;10146;47.754;9.566;2023-02-28T03:04:59;6.75;;;6.05;;
19969;SDS011;10146;47.754;9.566;2023-02-28T03:07:29;7.07;;;6.40;;
19969;SDS011;10146;47.754;9.566;2023-02-28T03:09:55;6.95;;;6.25;;
19969;SDS011;10146;47.754;9.566;2023-02-28T03:12:23;7.07;;;6.43;;
19969;SDS011;10146;47.754;9.566;2023-02-28T03:17:53;7.57;;;6.78;;
19969;SDS011;10146;47.754;9.566;2023-02-28T03:20:27;6.88;;;6.32;;
19969;SDS011;10146;47.754;9.566;2023-02-28T03:23:16;6.97;;;6.38;;
19969;SDS011;10146;47.754;9.566;2023-02-28T03:25:53;7.22;;;6.55;;
19969;SDS011;10146;47.754;9.566;2023-02-28T03:28:28;6.90;;;6.20;;
19969;SDS011;10146;47.754;9.566;2023-02-28T03:31:07;6.85;;;6.25;;
19969;SDS011;10146;47.754;9.566;2023-02-28T03:33:58;6.85;;;6.25;;
19969;SDS011;10146;47.754;9.566;2023-02-28T03:36:29;7.55;;;6.85;;
19969;SDS011;10146;47.754;9.566;2023-02-28T03:38:58;9.55;;;6.90;;
19969;SDS011;10146;47.754;9.566;2023-02-28T03:41:38;7.47;;;6.78;;
19969;SDS011;10146;47.754;9.566;2023-02-28T03:44:18;7.50;;;6.80;;
19969;SDS011;10146;47.754;9.566;2023-02-28T03:46:57;8.15;;;6.75;;
19969;SDS011;10146;47.754;9.566;2023-02-28T03:49:34;7.82;;;7.13;;
19969;SDS011;10146;47.754;9.566;2023-02-28T03:52:10;7.72;;;7.03;;
19969;SDS011;10146;47.754;9.566;2023-02-28T03:54:39;7.53;;;6.82;;
19969;SDS011;10146;47.754;9.566;2023-02-28T04:00:42;8.35;;;7.43;;
19969;SDS011;10146;47.754;9.566;2023-02-28T04:03:00;8.35;;;7.57;;
19969;SDS011;10146;47.754;9.566;2023-02-28T04:05:27;8.25;;;6.95;;
19969;SDS011;10146;47.754;9.566;2023-02-28T04:07:54;8.10;;;7.30;;
19969;SDS011;10146;47.754;9.566;2023-02-28T04:10:27;8.25;;;7.47;;
19969;SDS011;10146;47.754;9.566;2023-02-28T04:12:53;8.50;;;7.63;;
19969;SDS011;10146;47.754;9.566;2023-02-28T04:15:19;8.98;;;7.35;;
19969;SDS011;10146;47.754;9.566;2023-02-28T04:17:47;8.57;;;7.78;;
19969;SDS011;10146;47.754;9.566;2023-02-28T04:20:13;7.85;;;7.07;;
19969;SDS011;10146;47.754;9.566;2023-02-28T04:22:38;7.65;;;6.90;;
19969;SDS011;10146;47.754;9.566;2023-02-28T04:25:04;7.78;;;7.07;;
19969;SDS011;10146;47.754;9.566;2023-02-28T04:27:30;8.07;;;7.30;;
19969;SDS011;10146;47.754;9.566;2023-02-28T04:29:56;7.88;;;7.18;;
19969;SDS011;10146;47.754;9.566;2023-02-28T04:32:21;7.93;;;7.22;;
19969;SDS011;10146;47.754;9.566;2023-02-28T04:34:47;8.35;;;7.65;;
19969;SDS011;10146;47.754;9.566;2023-02-28T04:37:12;7.80;;;7.10;;
19969;SDS011;10146;47.754;9.566;2023-02-28T04:39:38;8.00;;;7.30;;
19969;SDS011;10146;47.754;9.566;2023-02-28T04:42:04;8.50;;;7.70;;
19969;SDS011;10146;47.754;9.566;2023-02-28T04:44:30;9.65;;;8.60;;
19969;SDS011;10146;47.754;9.566;2023-02-28T04:46:56;8.73;;;7.93;;
19969;SDS011;10146;47.754;9.566;2023-02-28T04:49:22;8.13;;;7.43;;
19969;SDS011;10146;47.754;9.566;2023-02-28T04:51:47;8.48;;;7.75;;
19969;SDS011;10146;47.754;9.566;2023-02-28T04:54:14;9.07;;;8.18;;
19969;SDS011;10146;47.754;9.566;2023-02-28T04:56:41;8.73;;;7.95;;
19969;SDS011;10146;47.754;9.566;2023-02-28T04:59:06;8.73;;;7.93;;
19969;SDS011;10146;47.754;9.566;2023-02-28T05:01:33;9.48;;;8.52;;
19969;SDS011;10146;47.754;9.566;2023-02-28T05:04:00;8.75;;;7.85;;
19969;SDS011;10146;47.754;9.566;2023-02-28T05:06:27;9.45;;;8.55;;
19969;SDS011;10146;47.754;9.566;2023-02-28T05:08:54;8.98;;;8.18;;
19969;SDS011;10146;47.754;9.566;2023-02-28T05:11:21;8.95;;;8.10;;
19969;SDS011;10146;47.754;9.566;2023-02-28T05:13:50;8.90;;;8.10;;
19969;SDS011;10146;47.754;9.566;2023-02-28T05:16:17;9.15;;;8.35;;
19969;SDS011;10146;47.754;9.566;2023-02-28T05:18:43;9.20;;;8.30;;
19969;SDS011;10146;47.754;9.566;2023-02-28T05:23:56;9.88;;;8.98;;
19969;SDS011;10146;47.754;9.566;2023-02-28T05:26:24;9.43;;;8.55;;
19969;SDS011;10146;47.754;9.566;2023-02-28T05:28:50;9.60;;;8.77;;
19969;SDS011;10146;47.754;9.566;2023-02-28T05:31:16;9.85;;;8.95;;
19969;SDS011;10146;47.754;9.566;2023-02-28T05:33:41;9.70;;;8.80;;
19969;SDS011;10146;47.754;9.566;2023-02-28T05:36:07;9.63;;;8.68;;
19969;SDS011;10146;47.754;9.566;2023-02-28T05:38:33;10.77;;;9.38;;
19969;SDS011;10146;47.754;9.566;2023-02-28T05:40:58;9.82;;;8.93;;
19969;SDS011;10146;47.754;9.566;2023-02-28T05:43:27;11.25;;;9.85;;
19969;SDS011;10146;47.754;9.566;2023-02-28T05:45:52;10.50;;;9.60;;
19969;SDS011;10146;47.754;9.566;2023-02-28T05:48:18;9.82;;;8.93;;
19969;SDS011;10146;47.754;9.566;2023-02-28T05:50:43;10.15;;;9.25;;
19969;SDS011;10146;47.754;9.566;2023-02-28T05:53:11;9.90;;;8.93;;
19969;SDS011;10146;47.754;9.566;2023-02-28T05:55:37;10.52;;;9.43;;
19969;SDS011;10146;47.754;9.566;2023-02-28T05:58:03;10.48;;;9.48;;
19969;SDS011;10146;47.754;9.566;2023-02-28T06:00:28;9.57;;;8.55;;
19969;SDS011;10146;47.754;9.566;2023-02-28T06:02:54;10.48;;;9.48;;
19969;SDS011;10146;47.754;9.566;2023-02-28T06:05:22;10.98;;;9.88;;
19969;SDS011;10146;47.754;9.566;2023-02-28T06:07:48;10.50;;;9.40;;
19969;SDS011;10146;47.754;9.566;2023-02-28T06:10:14;11.05;;;9.95;;
19969;SDS011;10146;47.754;9.566;2023-02-28T06:12:40;10.95;;;9.90;;
19969;SDS011;10146;47.754;9.566;2023-02-28T06:15:07;11.27;;;10.13;;
19969;SDS011;10146;47.754;9.566;2023-02-28T06:17:36;10.10;;;9.10;;
19969;SDS011;10146;47.754;9.566;2023-02-28T06:20:02;9.98;;;8.98;;
19969;SDS011;10146;47.754;9.566;2023-02-28T06:22:29;9.73;;;8.77;;
19969;SDS011;10146;47.754;9.566;2023-02-28T06:24:55;11.10;;;10.10;;
19969;SDS011;10146;47.754;9.566;2023-02-28T06:27:21;10.55;;;9.55;;
19969;SDS011;10146;47.754;9.566;2023-02-28T06:29:47;10.70;;;9.70;;
19969;SDS011;10146;47.754;9.566;2023-02-28T06:32:13;11.10;;;10.05;;
19969;SDS011;10146;47.754;9.566;2023-02-28T06:34:38;10.80;;;9.48;;
19969;SDS011;10146;47.754;9.566;2023-02-28T06:37:04;11.13;;;10.13;;
19969;SDS011;10146;47.754;9.566;2023-02-28T06:39:30;11.07;;;9.98;;
19969;SDS011;10146;47.754;9.566;2023-02-28T06:41:56;10.65;;;9.55;;
19969;SDS011;10146;47.754;9.566;2023-02-28T06:44:22;10.93;;;9.93;;
19969;SDS011;10146;47.754;9.566;2023-02-28T06:46:49;11.30;;;9.93;;
19969;SDS011;10146;47.754;9.566;2023-02-28T06:49:14;10.70;;;9.70;;
19969;SDS011;10146;47.754;9.566;2023-02-28T06:51:41;10.48;;;9.48;;
19969;SDS011;10146;47.754;9.566;2023-02-28T06:54:11;11.10;;;10.00;;
19969;SDS011;10146;47.754;9.566;2023-02-28T06:56:38;11.48;;;10.38;;
19969;SDS011;10146;47.754;9.566;2023-02-28T06:59:03;12.95;;;10.75;;
19969;SDS011;10146;47.754;9.566;2023-02-28T07:01:29;10.98;;;9.88;;
19969;SDS011;10146;47.754;9.566;2023-02-28T07:03:57;10.48;;;9.48;;
19969;SDS011;10146;47.754;9.566;2023-02-28T07:06:25;11.07;;;9.98;;
19969;SDS011;10146;47.754;9.566;2023-02-28T07:08:51;11.18;;;10.18;;
19969;SDS011;10146;47.754;9.566;2023-02-28T07:11:17;10.60;;;9.57;;
19969;SDS011;10146;47.754;9.566;2023-02-28T07:13:44;11.35;;;10.18;;
19969;SDS011;10146;47.754;9.566;2023-02-28T07:16:10;10.55;;;9.55;;
19969;SDS011;10146;47.754;9.566;2023-02-28T07:18:36;11.45;;;9.68;;
19969;SDS011;10146;47.754;9.566;2023-02-28T07:21:03;11.57;;;10.20;;
19969;SDS011;10146;47.754;9.566;2023-02-28T07:23:30;10.80;;;9.75;;
19969;SDS011;10146;47.754;9.566;2023-02-28T07:25:56;11.48;;;10.30;;
19969;SDS011;10146;47.754;9.566;2023-02-28T07:28:21;11.20;;;9.98;;
19969;SDS011;10146;47.754;9.566;2023-02-28T07:30:47;10.55;;;9.45;;
19969;SDS011;10146;47.754;9.566;2023-02-28T07:33:13;10.57;;;9.57;;
19969;SDS011;10146;47.754;9.566;2023-02-28T07:35:39;10.95;;;9.68;;
19969;SDS011;10146;47.754;9.566;2023-02-28T07:38:04;10.52;;;9.52;;
19969;SDS011;10146;47.754;9.566;2023-02-28T07:40:32;11.90;;;10.80;;
19969;SDS011;10146;47.754;9.566;2023-02-28T07:42:59;10.00;;;9.00;;
19969;SDS011;10146;47.754;9.566;2023-02-28T07:45:25;11.00;;;9.90;;
19969;SDS011;10146;47.754;9.566;2023-02-28T07:47:53;11.07;;;9.77;;
19969;SDS011;10146;47.754;9.566;2023-02-28T07:50:19;11.25;;;10.10;;
19969;SDS011;10146;47.754;9.566;2023-02-28T07:52:45;10.63;;;9.52;;
19969;SDS011;10146;47.754;9.566;2023-02-28T07:55:11;11.15;;;9.95;;
19969;SDS011;10146;47.754;9.566;2023-02-28T07:57:36;10.70;;;9.60;;
19969;SDS011;10146;47.754;9.566;2023-02-28T08:00:06;10.68;;;9.68;;
19969;SDS011;10146;47.754;9.566;2023-02-28T08:02:34;11.10;;;10.00;;
19969;SDS011;10146;47.754;9.566;2023-02-28T08:05:00;11.13;;;10.10;;
19969;SDS011;10146;47.754;9.566;2023-02-28T08:07:26;10.57;;;9.57;;
19969;SDS011;10146;47.754;9.566;2023-02-28T08:09:52;10.70;;;9.70;;
19969;SDS011;10146;47.754;9.566;2023-02-28T08:12:18;10.73;;;9.63;;
19969;SDS011;10146;47.754;9.566;2023-02-28T08:14:43;11.50;;;10.30;;
19969;SDS011;10146;47.754;9.566;2023-02-28T08:17:09;11.07;;;9.93;;
19969;SDS011;10146;47.754;9.566;2023-02-28T08:19:36;11.57;;;10.38;;
19969;SDS011;10146;47.754;9.566;2023-02-28T08:22:01;11.00;;;9.90;;
19969;SDS011;10146;47.754;9.566;2023-02-28T08:24:27;11.18;;;10.07;;
19969;SDS011;10146;47.754;9.566;2023-02-28T08:26:53;10.50;;;9.40;;
19969;SDS011;10146;47.754;9.566;2023-02-28T08:29:19;11.20;;;9.60;;
19969;SDS011;10146;47.754;9.566;2023-02-28T08:31:44;10.73;;;9.63;;
19969;SDS011;10146;47.754;9.566;2023-02-28T08:34:12;11.68;;;10.48;;
19969;SDS011;10146;47.754;9.566;2023-02-28T08:36:38;11.02;;;9.80;;
19969;SDS011;10146;47.754;9.566;2023-02-28T08:39:05;11.90;;;10.70;;
19969;SDS011;10146;47.754;9.566;2023-02-28T08:41:30;11.27;;;10.20;;
19969;SDS011;10146;47.754;9.566;2023-02-28T08:43:56;11.50;;;10.40;;
19969;SDS011;10146;47.754;9.566;2023-02-28T08:46:22;10.85;;;9.85;;
19969;SDS011;10146;47.754;9.566;2023-02-28T08:48:51;11.30;;;10.15;;
19969;SDS011;10146;47.754;9.566;2023-02-28T08:51:18;12.23;;;11.02;;
19969;SDS011;10146;47.754;9.566;2023-02-28T08:53:50;12.30;;;11.00;;
19969;SDS011;10146;47.754;9.566;2023-02-28T08:56:26;11.35;;;10.18;;
19969;SDS011;10146;47.754;9.566;2023-02-28T08:58:53;12.25;;;11.02;;
19969;SDS011;10146;47.754;9.566;2023-02-28T09:01:29;16.55;;;11.02;;
19969;SDS011;10146;47.754;9.566;2023-02-28T09:03:56;11.68;;;10.48;;
19969;SDS011;10146;47.754;9.566;2023-02-28T09:06:25;12.57;;;10.43;;
19969;SDS011;10146;47.754;9.566;2023-02-28T09:08:51;13.02;;;11.45;;
19969;SDS011;10146;47.754;9.566;2023-02-28T09:11:18;13.90;;;11.05;;
19969;SDS011;10146;47.754;9.566;2023-02-28T09:13:44;12.48;;;11.23;;
19969;SDS011;10146;47.754;9.566;2023-02-28T09:16:11;12.98;;;10.98;;
19969;SDS011;10146;47.754;9.566;2023-02-28T09:18:39;12.05;;;10.60;;
19969;SDS011;10146;47.754;9.566;2023-02-28T09:21:05;11.93;;;10.73;;
19969;SDS011;10146;47.754;9.566;2023-02-28T09:23:32;12.32;;;10.60;;
19969;SDS011;10146;47.754;9.566;2023-02-28T09:25:58;12.23;;;10.93;;
19969;SDS011;10146;47.754;9.566;2023-02-28T09:28:24;11.88;;;10.68;;
19969;SDS011;10146;47.754;9.566;2023-02-28T09:30:51;11.50;;;10.40;;
19969;SDS011;10146;47.754;9.566;2023-02-28T09:33:18;12.05;;;10.77;;
19969;SDS011;10146;47.754;9.566;2023-02-28T09:35:46;11.55;;;10.45;;
19969;SDS011;10146;47.754;9.566;2023-02-28T09:38:12;10.90;;;9.90;;
19969;SDS011;10146;47.754;9.566;2023-02-28T09:43:13;12.63;;;11.32;;
19969;SDS011;10146;47.754;9.566;2023-02-28T09:45:42;13.30;;;11.52;;
19969;SDS011;10146;47.754;9.566;2023-02-28T09:48:17;11.57;;;10.38;;
19969;SDS011;10146;47.754;9.566;2023-02-28T09:50:50;12.18;;;10.95;;
19969;SDS011;10146;47.754;9.566;2023-02-28T09:53:31;12.23;;;10.93;;
19969;SDS011;10146;47.754;9.566;2023-02-28T09:56:04;12.00;;;10.27;;
19969;SDS011;10146;47.754;9.566;2023-02-28T10:01:21;12.00;;;10.73;;
19969;SDS011;10146;47.754;9.566;2023-02-28T10:03:57;12.23;;;11.02;;
19969;SDS011;10146;47.754;9.566;2023-02-28T10:06:29;12.38;;;11.07;;
19969;SDS011;10146;47.754;9.566;2023-02-28T10:09:07;11.82;;;10.65;;
19969;SDS011;10146;47.754;9.566;2023-02-28T10:11:39;12.35;;;11.15;;
19969;SDS011;10146;47.754;9.566;2023-02-28T10:14:18;12.45;;;11.15;;
19969;SDS011;10146;47.754;9.566;2023-02-28T10:19:40;13.48;;;11.43;;
19969;SDS011;10146;47.754;9.566;2023-02-28T10:25:17;12.23;;;10.85;;
19969;SDS011;10146;47.754;9.566;2023-02-28T10:27:54;11.90;;;10.70;;
19969;SDS011;10146;47.754;9.566;2023-02-28T10:30:25;12.20;;;11.00;;
19969;SDS011;10146;47.754;9.566;2023-02-28T10:32:51;12.55;;;11.27;;
19969;SDS011;10146;47.754;9.566;2023-02-28T10:35:21;12.38;;;11.07;;
19969;SDS011;10146;47.754;9.566;2023-02-28T10:37:49;11.75;;;10.65;;
19969;SDS011;10146;47.754;9.566;2023-02-28T10:42:58;12.18;;;10.88;;
19969;SDS011;10146;47.754;9.566;2023-02-28T10:45:26;14.23;;;11.45;;
19969;SDS011;10146;47.754;9.566;2023-02-28T10:50:28;13.38;;;11.45;;
19969;SDS011;10146;47.754;9.566;2023-02-28T10:53:14;14.15;;;12.15;;
19969;SDS011;10146;47.754;9.566;2023-02-28T10:56:04;13.18;;;11.88;;
19969;SDS011;10146;47.754;9.566;2023-02-28T10:58:49;12.15;;;10.95;;
19969;SDS011;10146;47.754;9.566;2023-02-28T11:01:16;14.63;;;12.73;;
19969;SDS011;10146;47.754;9.566;2023-02-28T11:03:42;12.48;;;11.15;;
19969;SDS011;10146;47.754;9.566;2023-02-28T11:06:12;12.68;;;11.38;;
19969;SDS011;10146;47.754;9.566;2023-02-28T11:08:47;13.65;;;11.75;;
19969;SDS011;10146;47.754;9.566;2023-02-28T11:11:16;13.25;;;11.85;;
19969;SDS011;10146;47.754;9.566;2023-02-28T11:13:42;13.38;;;11.35;;
19969;SDS011;10146;47.754;9.566;2023-02-28T11:16:10;12.27;;;10.98;;
19969;SDS011;10146;47.754;9.566;2023-02-28T11:18:42;13.82;;;11.43;;
19969;SDS011;10146;47.754;9.566;2023-02-28T11:21:23;15.00;;;13.32;;
19969;SDS011;10146;47.754;9.566;2023-02-28T11:26:48;15.63;;;12.57;;
19969;SDS011;10146;47.754;9.566;2023-02-28T11:29:19;16.77;;;13.65;;
19969;SDS011;10146;47.754;9.566;2023-02-28T11:32:01;13.07;;;11.77;;
19969;SDS011;10146;47.754;9.566;2023-02-28T11:34:33;13.70;;;12.15;;
19969;SDS011;10146;47.754;9.566;2023-02-28T11:37:00;12.80;;;11.50;;
19969;SDS011;10146;47.754;9.566;2023-02-28T11:39:30;13.10;;;11.80;;
19969;SDS011;10146;47.754;9.566;2023-02-28T11:42:04;13.00;;;11.68;;
19969;SDS011;10146;47.754;9.566;2023-02-28T11:44:58;14.57;;;11.85;;
19969;SDS011;10146;47.754;9.566;2023-02-28T11:47:47;14.63;;;12.05;;
19969;SDS011;10146;47.754;9.566;2023-02-28T11:50:20;13.65;;;12.20;;
19969;SDS011;10146;47.754;9.566;2023-02-28T11:53:00;15.82;;;12.68;;
19969;SDS011;10146;47.754;9.566;2023-02-28T11:55:36;13.68;;;12.18;;
19969;SDS011;10146;47.754;9.566;2023-02-28T12:03:52;15.70;;;12.70;;
19969;SDS011;10146;47.754;9.566;2023-02-28T12:06:27;13.38;;;11.95;;
19969;SDS011;10146;47.754;9.566;2023-02-28T12:14:59;14.65;;;12.75;;
19969;SDS011;10146;47.754;9.566;2023-02-28T12:28:58;14.43;;;12.30;;
19969;SDS011;10146;47.754;9.566;2023-02-28T12:31:45;13.82;;;12.15;;
19969;SDS011;10146;47.754;9.566;2023-02-28T12:34:48;15.30;;;12.80;;
19969;SDS011;10146;47.754;9.566;2023-02-28T12:37:14;13.30;;;11.90;;
19969;SDS011;10146;47.754;9.566;2023-02-28T12:40:00;14.30;;;12.80;;
19969;SDS011;10146;47.754;9.566;2023-02-28T12:42:34;14.30;;;12.82;;
19969;SDS011;10146;47.754;9.566;2023-02-28T12:47:33;13.45;;;12.07;;
19969;SDS011;10146;47.754;9.566;2023-02-28T12:50:02;13.77;;;12.40;;
19969;SDS011;10146;47.754;9.566;2023-02-28T12:52:33;15.23;;;13.27;;
19969;SDS011;10146;47.754;9.566;2023-02-28T12:55:03;15.30;;;12.77;;
19969;SDS011;10146;47.754;9.566;2023-02-28T13:11:50;13.32;;;11.98;;
19969;SDS011;10146;47.754;9.566;2023-02-28T13:19:25;14.93;;;12.65;;
19969;SDS011;10146;47.754;9.566;2023-02-28T13:21:53;14.52;;;13.02;;
19969;SDS011;10146;47.754;9.566;2023-02-28T13:24:40;14.18;;;12.68;;
19969;SDS011;10146;47.754;9.566;2023-02-28T13:27:12;14.13;;;12.70;;
19969;SDS011;10146;47.754;9.566;2023-02-28T13:29:56;14.85;;;13.13;;
19969;SDS011;10146;47.754;9.566;2023-02-28T13:39:52;14.10;;;12.60;;
19969;SDS011;10146;47.754;9.566;2023-02-28T13:48:01;13.13;;;11.82;;
19969;SDS011;10146;47.754;9.566;2023-02-28T13:50:30;14.55;;;12.70;;
19969;SDS011;10146;47.754;9.566;2023-02-28T13:55:46;15.88;;;12.75;;
19969;SDS011;10146;47.754;9.566;2023-02-28T14:03:35;14.13;;;12.63;;
19969;SDS011;10146;47.754;9.566;2023-02-28T14:09:06;15.40;;;13.23;;
19969;SDS011;10146;47.754;9.566;2023-02-28T14:11:51;15.13;;;13.63;;
19969;SDS011;10146;47.754;9.566;2023-02-28T14:17:03;15.50;;;13.90;;
19969;SDS011;10146;47.754;9.566;2023-02-28T14:19:31;16.35;;;14.57;;
19969;SDS011;10146;47.754;9.566;2023-02-28T14:30:24;17.17;;;14.93;;
19969;SDS011;10146;47.754;9.566;2023-02-28T14:38:47;15.32;;;13.73;;
19969;SDS011;10146;47.754;9.566;2023-02-28T14:41:39;15.90;;;14.25;;
19969;SDS011;10146;47.754;9.566;2023-02-28T14:44:22;17.30;;;15.50;;
19969;SDS011;10146;47.754;9.566;2023-02-28T14:46:52;16.73;;;15.07;;
19969;SDS011;10146;47.754;9.566;2023-02-28T14:49:29;17.27;;;15.48;;
19969;SDS011;10146;47.754;9.566;2023-02-28T14:52:05;17.42;;;15.63;;
19969;SDS011;10146;47.754;9.566;2023-02-28T14:54:40;18.25;;;16.35;;
19969;SDS011;10146;47.754;9.566;2023-02-28T14:57:06;20.27;;;17.70;;
19969;SDS011;10146;47.754;9.566;2023-02-28T14:59:45;19.30;;;16.75;;
19969;SDS011;10146;47.754;9.566;2023-02-28T15:02:17;18.25;;;16.02;;
19969;SDS011;10146;47.754;9.566;2023-02-28T15:04:53;18.38;;;16.52;;
19969;SDS011;10146;47.754;9.566;2023-02-28T15:07:26;19.70;;;15.35;;
19969;SDS011;10146;47.754;9.566;2023-02-28T15:12:44;18.13;;;15.77;;
19969;SDS011;10146;47.754;9.566;2023-02-28T15:18:13;18.42;;;16.40;;
19969;SDS011;10146;47.754;9.566;2023-02-28T15:20:52;17.50;;;15.68;;
19969;SDS011;10146;47.754;9.566;2023-02-28T15:23:19;17.25;;;15.45;;
19969;SDS011;10146;47.754;9.566;2023-02-28T15:25:46;18.45;;;16.15;;
19969;SDS011;10146;47.754;9.566;2023-02-28T15:28:14;19.88;;;16.85;;
19969;SDS011;10146;47.754;9.566;2023-02-28T15:30:50;18.40;;;15.82;;
19969;SDS011;10146;47.754;9.566;2023-02-28T15:33:29;17.30;;;15.27;;
19969;SDS011;10146;47.754;9.566;2023-02-28T15:36:05;16.55;;;14.80;;
19969;SDS011;10146;47.754;9.566;2023-02-28T15:38:42;16.83;;;15.13;;
19969;SDS011;10146;47.754;9.566;2023-02-28T15:46:58;18.67;;;16.45;;
19969;SDS011;10146;47.754;9.566;2023-02-28T15:49:27;19.27;;;16.38;;
19969;SDS011;10146;47.754;9.566;2023-02-28T15:51:59;18.75;;;16.20;;
19969;SDS011;10146;47.754;9.566;2023-02-28T15:54:29;18.83;;;16.90;;
19969;SDS011;10146;47.754;9.566;2023-02-28T15:57:00;18.95;;;16.52;;
19969;SDS011;10146;47.754;9.566;2023-02-28T15:59:34;19.23;;;16.65;;
19969;SDS011;10146;47.754;9.566;2023-02-28T16:02:30;18.67;;;16.77;;
19969;SDS011;10146;47.754;9.566;2023-02-28T16:07:36;18.15;;;16.20;;
19969;SDS011;10146;47.754;9.566;2023-02-28T16:10:06;20.38;;;16.83;;
19969;SDS011;10146;47.754;9.566;2023-02-28T16:12:34;17.92;;;16.02;;
19969;SDS011;10146;47.754;9.566;2023-02-28T16:15:05;18.23;;;16.33;;
19969;SDS011;10146;47.754;9.566;2023-02-28T16:17:43;17.30;;;15.50;;
19969;SDS011;10146;47.754;9.566;2023-02-28T16:20:17;17.48;;;15.65;;
19969;SDS011;10146;47.754;9.566;2023-02-28T16:22:46;18.90;;;16.90;;
19969;SDS011;10146;47.754;9.566;2023-02-28T16:25:15;20.80;;;17.80;;
19969;SDS011;10146;47.754;9.566;2023-02-28T16:27:43;20.00;;;17.25;;
19969;SDS011;10146;47.754;9.566;2023-02-28T16:30:18;23.63;;;20.67;;
19969;SDS011;10146;47.754;9.566;2023-02-28T16:32:46;20.45;;;17.63;;
19969;SDS011;10146;47.754;9.566;2023-02-28T16:35:13;21.02;;;18.17;;
19969;SDS011;10146;47.754;9.566;2023-02-28T16:37:39;21.60;;;18.98;;
19969;SDS011;10146;47.754;9.566;2023-02-28T16:40:06;21.38;;;18.98;;
19969;SDS011;10146;47.754;9.566;2023-02-28T16:42:34;21.83;;;19.52;;
19969;SDS011;10146;47.754;9.566;2023-02-28T16:44:59;20.73;;;18.52;;
19969;SDS011;10146;47.754;9.566;2023-02-28T16:47:25;21.38;;;19.08;;
19969;SDS011;10146;47.754;9.566;2023-02-28T16:49:51;20.13;;;18.02;;
19969;SDS011;10146;47.754;9.566;2023-02-28T16:52:17;22.10;;;19.70;;
19969;SDS011;10146;47.754;9.566;2023-02-28T16:54:43;21.63;;;19.02;;
19969;SDS011;10146;47.754;9.566;2023-02-28T16:57:21;21.00;;;18.75;;
19969;SDS011;10146;47.754;9.566;2023-02-28T16:59:48;22.52;;;20.10;;
19969;SDS011;10146;47.754;9.566;2023-02-28T17:02:16;21.33;;;18.98;;
19969;SDS011;10146;47.754;9.566;2023-02-28T17:04:44;23.17;;;19.63;;
19969;SDS011;10146;47.754;9.566;2023-02-28T17:07:10;22.10;;;18.10;;
19969;SDS011;10146;47.754;9.566;2023-02-28T17:09:38;21.17;;;18.17;;
19969;SDS011;10146;47.754;9.566;2023-02-28T17:12:03;21.70;;;19.40;;
19969;SDS011;10146;47.754;9.566;2023-02-28T17:14:29;29.05;;;24.13;;
19969;SDS011;10146;47.754;9.566;2023-02-28T17:16:55;22.58;;;19.42;;